sensor_id;sensor_type;location;lat;lon;timestamp;P1;P2;P0
47741;PMS5003;33504;52.066;6.096;2023-04-30T00:00:17;48;48;
47741;PMS5003;33504;52.066;6.096;2023-04-30T00:02:45;33;32;
47741;PMS5003;33504;52.066;6.096;2023-04-30T00:05:12;55;54;
47741;PMS5003;33504;52.066;6.096;2023-04-30T00:07:39;39;38;
47741;PMS5003;33504;52.066;6.096;2023-04-30T00:10:06;32;31;
47741;PMS5003;33504;52.066;6.096;2023-04-30T00:12:34;46;46;
47741;PMS5003;33504;52.066;6.096;2023-04-30T00:15:02;27;23;
47741;PMS5003;33504;52.066;6.096;2023-04-30T00:17:30;50;50;
47741;PMS5003;33504;52.066;6.096;2023-04-30T00:19:57;55;53;
47741;PMS5003;33504;52.066;6.096;2023-04-30T00:22:25;34;34;
47741;PMS5003;33504;52.066;6.096;2023-04-30T00:24:52;47;47;
47741;PMS5003;33504;52.066;6.096;2023-04-30T00:27:18;64;63;
47741;PMS5003;33504;52.066;6.096;2023-04-30T00:29:45;17;17;
47741;PMS5003;33504;52.066;6.096;2023-04-30T00:32:12;17;17;
47741;PMS5003;33504;52.066;6.096;2023-04-30T00:34:39;30;30;
47741;PMS5003;33504;52.066;6.096;2023-04-30T00:37:06;33;30;
47741;PMS5003;33504;52.066;6.096;2023-04-30T00:39:32;29;27;
47741;PMS5003;33504;52.066;6.096;2023-04-30T00:41:59;16;16;
47741;PMS5003;33504;52.066;6.096;2023-04-30T00:44:26;14;14;
47741;PMS5003;33504;52.066;6.096;2023-04-30T00:46:53;17;17;
47741;PMS5003;33504;52.066;6.096;2023-04-30T00:49:20;15;14;
47741;PMS5003;33504;52.066;6.096;2023-04-30T00:51:47;16;16;
47741;PMS5003;33504;52.066;6.096;2023-04-30T00:54:16;16;16;
47741;PMS5003;33504;52.066;6.096;2023-04-30T00:56:45;28;25;
47741;PMS5003;33504;52.066;6.096;2023-04-30T00:59:12;16;16;
47741;PMS5003;33504;52.066;6.096;2023-04-30T01:01:39;15;15;
47741;PMS5003;33504;52.066;6.096;2023-04-30T01:04:06;13;13;
47741;PMS5003;33504;52.066;6.096;2023-04-30T01:06:33;17;15;
47741;PMS5003;33504;52.066;6.096;2023-04-30T01:09:00;15;15;
47741;PMS5003;33504;52.066;6.096;2023-04-30T01:11:27;16;16;
47741;PMS5003;33504;52.066;6.096;2023-04-30T01:14:08;17;17;
47741;PMS5003;33504;52.066;6.096;2023-04-30T01:16:39;20;18;
47741;PMS5003;33504;52.066;6.096;2023-04-30T01:19:15;16;16;
47741;PMS5003;33504;52.066;6.096;2023-04-30T01:21:58;14;14;
47741;PMS5003;33504;52.066;6.096;2023-04-30T01:24:36;17;16;
47741;PMS5003;33504;52.066;6.096;2023-04-30T01:27:24;15;15;
47741;PMS5003;33504;52.066;6.096;2023-04-30T01:30:03;18;14;
47741;PMS5003;33504;52.066;6.096;2023-04-30T01:32:31;12;12;
47741;PMS5003;33504;52.066;6.096;2023-04-30T01:34:58;17;16;
47741;PMS5003;33504;52.066;6.096;2023-04-30T01:37:27;16;16;
47741;PMS5003;33504;52.066;6.096;2023-04-30T01:40:08;15;14;
47741;PMS5003;33504;52.066;6.096;2023-04-30T01:42:48;16;15;
47741;PMS5003;33504;52.066;6.096;2023-04-30T01:45:26;19;18;
47741;PMS5003;33504;52.066;6.096;2023-04-30T01:48:13;17;17;
47741;PMS5003;33504;52.066;6.096;2023-04-30T01:50:48;22;21;
47741;PMS5003;33504;52.066;6.096;2023-04-30T01:53:19;13;13;
47741;PMS5003;33504;52.066;6.096;2023-04-30T01:55:50;15;15;
47741;PMS5003;33504;52.066;6.096;2023-04-30T01:58:22;16;16;
47741;PMS5003;33504;52.066;6.096;2023-04-30T02:00:50;15;14;
47741;PMS5003;33504;52.066;6.096;2023-04-30T02:03:17;16;16;
47741;PMS5003;33504;52.066;6.096;2023-04-30T02:05:44;15;15;
47741;PMS5003;33504;52.066;6.096;2023-04-30T02:08:12;14;14;
47741;PMS5003;33504;52.066;6.096;2023-04-30T02:10:39;15;14;
47741;PMS5003;33504;52.066;6.096;2023-04-30T02:13:06;14;14;
47741;PMS5003;33504;52.066;6.096;2023-04-30T02:15:33;14;14;
47741;PMS5003;33504;52.066;6.096;2023-04-30T02:18:00;13;13;
47741;PMS5003;33504;52.066;6.096;2023-04-30T02:20:27;16;16;
47741;PMS5003;33504;52.066;6.096;2023-04-30T02:22:54;20;19;
47741;PMS5003;33504;52.066;6.096;2023-04-30T02:25:21;14;14;
47741;PMS5003;33504;52.066;6.096;2023-04-30T02:27:49;14;14;
47741;PMS5003;33504;52.066;6.096;2023-04-30T02:30:16;14;13;
47741;PMS5003;33504;52.066;6.096;2023-04-30T02:32:42;17;17;
47741;PMS5003;33504;52.066;6.096;2023-04-30T02:35:09;15;15;
47741;PMS5003;33504;52.066;6.096;2023-04-30T02:37:36;17;17;
47741;PMS5003;33504;52.066;6.096;2023-04-30T02:40:03;18;16;
47741;PMS5003;33504;52.066;6.096;2023-04-30T02:42:31;17;16;
47741;PMS5003;33504;52.066;6.096;2023-04-30T02:44:58;20;20;
47741;PMS5003;33504;52.066;6.096;2023-04-30T02:47:25;16;14;
47741;PMS5003;33504;52.066;6.096;2023-04-30T02:49:52;17;17;
47741;PMS5003;33504;52.066;6.096;2023-04-30T02:52:19;17;16;
47741;PMS5003;33504;52.066;6.096;2023-04-30T02:54:46;15;14;
47741;PMS5003;33504;52.066;6.096;2023-04-30T02:57:13;17;15;
47741;PMS5003;33504;52.066;6.096;2023-04-30T02:59:39;17;17;
47741;PMS5003;33504;52.066;6.096;2023-04-30T03:02:06;17;15;
47741;PMS5003;33504;52.066;6.096;2023-04-30T03:04:33;15;15;
47741;PMS5003;33504;52.066;6.096;2023-04-30T03:07:00;19;18;
47741;PMS5003;33504;52.066;6.096;2023-04-30T03:09:27;16;16;
47741;PMS5003;33504;52.066;6.096;2023-04-30T03:11:56;14;14;
47741;PMS5003;33504;52.066;6.096;2023-04-30T03:14:23;16;14;
47741;PMS5003;33504;52.066;6.096;2023-04-30T03:16:50;15;14;
47741;PMS5003;33504;52.066;6.096;2023-04-30T03:19:16;17;17;
47741;PMS5003;33504;52.066;6.096;2023-04-30T03:21:44;19;18;
47741;PMS5003;33504;52.066;6.096;2023-04-30T03:24:11;15;14;
47741;PMS5003;33504;52.066;6.096;2023-04-30T03:26:38;16;15;
47741;PMS5003;33504;52.066;6.096;2023-04-30T03:29:06;18;17;
47741;PMS5003;33504;52.066;6.096;2023-04-30T03:31:33;14;14;
47741;PMS5003;33504;52.066;6.096;2023-04-30T03:34:00;17;16;
47741;PMS5003;33504;52.066;6.096;2023-04-30T03:36:26;17;16;
47741;PMS5003;33504;52.066;6.096;2023-04-30T03:38:53;15;15;
47741;PMS5003;33504;52.066;6.096;2023-04-30T03:41:20;17;16;
47741;PMS5003;33504;52.066;6.096;2023-04-30T03:43:46;15;14;
47741;PMS5003;33504;52.066;6.096;2023-04-30T03:46:13;16;15;
47741;PMS5003;33504;52.066;6.096;2023-04-30T03:48:40;17;17;
47741;PMS5003;33504;52.066;6.096;2023-04-30T03:51:07;21;19;
47741;PMS5003;33504;52.066;6.096;2023-04-30T03:53:34;19;19;
47741;PMS5003;33504;52.066;6.096;2023-04-30T03:56:01;15;15;
47741;PMS5003;33504;52.066;6.096;2023-04-30T03:58:30;16;16;
47741;PMS5003;33504;52.066;6.096;2023-04-30T04:00:57;17;17;
47741;PMS5003;33504;52.066;6.096;2023-04-30T04:03:24;18;17;
47741;PMS5003;33504;52.066;6.096;2023-04-30T04:05:51;15;15;
47741;PMS5003;33504;52.066;6.096;2023-04-30T04:08:18;18;18;
47741;PMS5003;33504;52.066;6.096;2023-04-30T04:10:45;23;22;
47741;PMS5003;33504;52.066;6.096;2023-04-30T04:13:11;20;20;
47741;PMS5003;33504;52.066;6.096;2023-04-30T04:15:38;29;29;
47741;PMS5003;33504;52.066;6.096;2023-04-30T04:18:05;26;25;
47741;PMS5003;33504;52.066;6.096;2023-04-30T04:20:32;33;32;
47741;PMS5003;33504;52.066;6.096;2023-04-30T04:22:58;25;24;
47741;PMS5003;33504;52.066;6.096;2023-04-30T04:25:26;25;24;
47741;PMS5003;33504;52.066;6.096;2023-04-30T04:27:52;22;21;
47741;PMS5003;33504;52.066;6.096;2023-04-30T04:30:20;24;21;
47741;PMS5003;33504;52.066;6.096;2023-04-30T04:32:47;15;15;
47741;PMS5003;33504;52.066;6.096;2023-04-30T04:35:13;19;19;
47741;PMS5003;33504;52.066;6.096;2023-04-30T04:37:41;21;20;
47741;PMS5003;33504;52.066;6.096;2023-04-30T04:40:08;22;21;
47741;PMS5003;33504;52.066;6.096;2023-04-30T04:42:35;16;16;
47741;PMS5003;33504;52.066;6.096;2023-04-30T04:45:03;27;26;
47741;PMS5003;33504;52.066;6.096;2023-04-30T04:47:31;17;17;
47741;PMS5003;33504;52.066;6.096;2023-04-30T04:49:57;18;18;
47741;PMS5003;33504;52.066;6.096;2023-04-30T04:52:25;26;21;
47741;PMS5003;33504;52.066;6.096;2023-04-30T04:54:52;29;26;
47741;PMS5003;33504;52.066;6.096;2023-04-30T04:57:19;22;22;
47741;PMS5003;33504;52.066;6.096;2023-04-30T04:59:46;42;39;
47741;PMS5003;33504;52.066;6.096;2023-04-30T05:02:13;34;33;
47741;PMS5003;33504;52.066;6.096;2023-04-30T05:04:40;32;32;
47741;PMS5003;33504;52.066;6.096;2023-04-30T05:07:06;26;26;
47741;PMS5003;33504;52.066;6.096;2023-04-30T05:09:34;22;19;
47741;PMS5003;33504;52.066;6.096;2023-04-30T05:12:01;27;26;
47741;PMS5003;33504;52.066;6.096;2023-04-30T05:14:27;31;30;
47741;PMS5003;33504;52.066;6.096;2023-04-30T05:16:54;25;23;
47741;PMS5003;33504;52.066;6.096;2023-04-30T05:19:21;36;35;
47741;PMS5003;33504;52.066;6.096;2023-04-30T05:21:48;27;25;
47741;PMS5003;33504;52.066;6.096;2023-04-30T05:24:14;23;22;
47741;PMS5003;33504;52.066;6.096;2023-04-30T05:26:41;20;19;
47741;PMS5003;33504;52.066;6.096;2023-04-30T05:29:08;20;19;
47741;PMS5003;33504;52.066;6.096;2023-04-30T05:31:36;18;18;
47741;PMS5003;33504;52.066;6.096;2023-04-30T05:34:03;22;20;
47741;PMS5003;33504;52.066;6.096;2023-04-30T05:36:30;19;18;
47741;PMS5003;33504;52.066;6.096;2023-04-30T05:38:56;20;19;
47741;PMS5003;33504;52.066;6.096;2023-04-30T05:41:24;20;20;
47741;PMS5003;33504;52.066;6.096;2023-04-30T05:43:51;25;24;
47741;PMS5003;33504;52.066;6.096;2023-04-30T05:46:18;25;24;
47741;PMS5003;33504;52.066;6.096;2023-04-30T05:48:44;22;21;
47741;PMS5003;33504;52.066;6.096;2023-04-30T05:51:11;27;26;
47741;PMS5003;33504;52.066;6.096;2023-04-30T05:53:38;25;24;
47741;PMS5003;33504;52.066;6.096;2023-04-30T05:56:05;24;23;
47741;PMS5003;33504;52.066;6.096;2023-04-30T05:58:32;24;23;
47741;PMS5003;33504;52.066;6.096;2023-04-30T06:00:59;29;28;
47741;PMS5003;33504;52.066;6.096;2023-04-30T06:03:26;23;23;
47741;PMS5003;33504;52.066;6.096;2023-04-30T06:05:53;22;22;
47741;PMS5003;33504;52.066;6.096;2023-04-30T06:08:20;21;21;
47741;PMS5003;33504;52.066;6.096;2023-04-30T06:10:46;22;22;
47741;PMS5003;33504;52.066;6.096;2023-04-30T06:13:14;31;28;
47741;PMS5003;33504;52.066;6.096;2023-04-30T06:15:41;24;24;
47741;PMS5003;33504;52.066;6.096;2023-04-30T06:18:08;25;24;
47741;PMS5003;33504;52.066;6.096;2023-04-30T06:20:35;23;23;
47741;PMS5003;33504;52.066;6.096;2023-04-30T06:23:02;26;26;
47741;PMS5003;33504;52.066;6.096;2023-04-30T06:25:28;28;26;
47741;PMS5003;33504;52.066;6.096;2023-04-30T06:27:56;25;24;
47741;PMS5003;33504;52.066;6.096;2023-04-30T06:30:23;21;21;
47741;PMS5003;33504;52.066;6.096;2023-04-30T06:32:50;29;27;
47741;PMS5003;33504;52.066;6.096;2023-04-30T06:35:16;26;25;
47741;PMS5003;33504;52.066;6.096;2023-04-30T06:37:43;23;22;
47741;PMS5003;33504;52.066;6.096;2023-04-30T06:40:10;24;24;
47741;PMS5003;33504;52.066;6.096;2023-04-30T06:42:37;24;24;
47741;PMS5003;33504;52.066;6.096;2023-04-30T06:45:05;27;24;
47741;PMS5003;33504;52.066;6.096;2023-04-30T06:47:33;38;38;
47741;PMS5003;33504;52.066;6.096;2023-04-30T06:50:01;28;27;
47741;PMS5003;33504;52.066;6.096;2023-04-30T06:52:29;45;44;
47741;PMS5003;33504;52.066;6.096;2023-04-30T06:54:56;38;38;
47741;PMS5003;33504;52.066;6.096;2023-04-30T06:57:22;28;27;
47741;PMS5003;33504;52.066;6.096;2023-04-30T06:59:50;27;25;
47741;PMS5003;33504;52.066;6.096;2023-04-30T07:02:16;44;43;
47741;PMS5003;33504;52.066;6.096;2023-04-30T07:04:43;25;24;
47741;PMS5003;33504;52.066;6.096;2023-04-30T07:07:11;21;20;
47741;PMS5003;33504;52.066;6.096;2023-04-30T07:09:38;24;23;
47741;PMS5003;33504;52.066;6.096;2023-04-30T07:12:05;20;19;
47741;PMS5003;33504;52.066;6.096;2023-04-30T07:14:32;19;19;
47741;PMS5003;33504;52.066;6.096;2023-04-30T07:16:59;21;21;
47741;PMS5003;33504;52.066;6.096;2023-04-30T07:19:25;22;21;
47741;PMS5003;33504;52.066;6.096;2023-04-30T07:21:52;25;24;
47741;PMS5003;33504;52.066;6.096;2023-04-30T07:24:19;25;23;
47741;PMS5003;33504;52.066;6.096;2023-04-30T07:26:46;24;24;
47741;PMS5003;33504;52.066;6.096;2023-04-30T07:29:14;32;31;
47741;PMS5003;33504;52.066;6.096;2023-04-30T07:31:40;19;19;
47741;PMS5003;33504;52.066;6.096;2023-04-30T07:34:08;19;17;
47741;PMS5003;33504;52.066;6.096;2023-04-30T07:36:35;24;22;
47741;PMS5003;33504;52.066;6.096;2023-04-30T07:39:02;25;25;
47741;PMS5003;33504;52.066;6.096;2023-04-30T07:41:29;21;20;
47741;PMS5003;33504;52.066;6.096;2023-04-30T07:43:57;19;19;
47741;PMS5003;33504;52.066;6.096;2023-04-30T07:46:23;18;17;
47741;PMS5003;33504;52.066;6.096;2023-04-30T07:48:50;15;14;
47741;PMS5003;33504;52.066;6.096;2023-04-30T07:51:18;19;18;
47741;PMS5003;33504;52.066;6.096;2023-04-30T07:53:45;18;17;
47741;PMS5003;33504;52.066;6.096;2023-04-30T07:56:12;16;16;
47741;PMS5003;33504;52.066;6.096;2023-04-30T07:58:39;15;15;
47741;PMS5003;33504;52.066;6.096;2023-04-30T08:01:06;14;13;
47741;PMS5003;33504;52.066;6.096;2023-04-30T08:03:33;17;15;
47741;PMS5003;33504;52.066;6.096;2023-04-30T08:06:00;16;16;
47741;PMS5003;33504;52.066;6.096;2023-04-30T08:08:28;16;16;
47741;PMS5003;33504;52.066;6.096;2023-04-30T08:10:55;16;16;
47741;PMS5003;33504;52.066;6.096;2023-04-30T08:13:22;18;17;
47741;PMS5003;33504;52.066;6.096;2023-04-30T08:15:49;18;17;
47741;PMS5003;33504;52.066;6.096;2023-04-30T08:18:17;15;15;
47741;PMS5003;33504;52.066;6.096;2023-04-30T08:20:43;18;16;
47741;PMS5003;33504;52.066;6.096;2023-04-30T08:23:10;17;17;
47741;PMS5003;33504;52.066;6.096;2023-04-30T08:25:37;17;16;
47741;PMS5003;33504;52.066;6.096;2023-04-30T08:28:05;15;15;
47741;PMS5003;33504;52.066;6.096;2023-04-30T08:30:32;18;17;
47741;PMS5003;33504;52.066;6.096;2023-04-30T08:32:59;16;16;
47741;PMS5003;33504;52.066;6.096;2023-04-30T08:35:26;19;19;
47741;PMS5003;33504;52.066;6.096;2023-04-30T08:37:53;16;14;
47741;PMS5003;33504;52.066;6.096;2023-04-30T08:40:20;13;13;
47741;PMS5003;33504;52.066;6.096;2023-04-30T08:42:49;18;17;
47741;PMS5003;33504;52.066;6.096;2023-04-30T08:45:23;15;14;
47741;PMS5003;33504;52.066;6.096;2023-04-30T08:47:52;18;17;
47741;PMS5003;33504;52.066;6.096;2023-04-30T08:50:19;14;14;
47741;PMS5003;33504;52.066;6.096;2023-04-30T08:52:47;14;14;
47741;PMS5003;33504;52.066;6.096;2023-04-30T08:55:13;13;12;
47741;PMS5003;33504;52.066;6.096;2023-04-30T08:57:40;15;14;
47741;PMS5003;33504;52.066;6.096;2023-04-30T09:00:08;15;14;
47741;PMS5003;33504;52.066;6.096;2023-04-30T09:02:38;16;16;
47741;PMS5003;33504;52.066;6.096;2023-04-30T09:05:07;16;16;
47741;PMS5003;33504;52.066;6.096;2023-04-30T09:07:36;16;15;
47741;PMS5003;33504;52.066;6.096;2023-04-30T09:10:09;14;12;
47741;PMS5003;33504;52.066;6.096;2023-04-30T09:12:40;14;14;
47741;PMS5003;33504;52.066;6.096;2023-04-30T09:15:07;14;14;
47741;PMS5003;33504;52.066;6.096;2023-04-30T09:17:35;14;13;
47741;PMS5003;33504;52.066;6.096;2023-04-30T09:20:05;10;9;
47741;PMS5003;33504;52.066;6.096;2023-04-30T09:22:34;10;10;
47741;PMS5003;33504;52.066;6.096;2023-04-30T09:25:01;12;12;
47741;PMS5003;33504;52.066;6.096;2023-04-30T09:27:29;14;11;
47741;PMS5003;33504;52.066;6.096;2023-04-30T09:29:56;12;12;
47741;PMS5003;33504;52.066;6.096;2023-04-30T09:32:24;13;13;
47741;PMS5003;33504;52.066;6.096;2023-04-30T09:34:51;12;12;
47741;PMS5003;33504;52.066;6.096;2023-04-30T09:37:18;14;14;
47741;PMS5003;33504;52.066;6.096;2023-04-30T09:39:45;12;12;
47741;PMS5003;33504;52.066;6.096;2023-04-30T09:42:14;15;14;
47741;PMS5003;33504;52.066;6.096;2023-04-30T09:44:42;12;11;
47741;PMS5003;33504;52.066;6.096;2023-04-30T09:47:10;12;11;
47741;PMS5003;33504;52.066;6.096;2023-04-30T09:49:41;15;15;
47741;PMS5003;33504;52.066;6.096;2023-04-30T09:52:10;17;16;
47741;PMS5003;33504;52.066;6.096;2023-04-30T09:54:37;14;13;
47741;PMS5003;33504;52.066;6.096;2023-04-30T09:57:05;12;11;
47741;PMS5003;33504;52.066;6.096;2023-04-30T09:59:36;11;11;
47741;PMS5003;33504;52.066;6.096;2023-04-30T10:02:03;11;11;
47741;PMS5003;33504;52.066;6.096;2023-04-30T10:04:32;10;9;
47741;PMS5003;33504;52.066;6.096;2023-04-30T10:07:01;10;10;
47741;PMS5003;33504;52.066;6.096;2023-04-30T10:09:34;8;8;
47741;PMS5003;33504;52.066;6.096;2023-04-30T10:12:07;18;17;
47741;PMS5003;33504;52.066;6.096;2023-04-30T10:14:39;11;11;
47741;PMS5003;33504;52.066;6.096;2023-04-30T10:17:22;16;14;
47741;PMS5003;33504;52.066;6.096;2023-04-30T10:19:53;18;18;
47741;PMS5003;33504;52.066;6.096;2023-04-30T10:22:27;13;13;
47741;PMS5003;33504;52.066;6.096;2023-04-30T10:24:55;11;10;
47741;PMS5003;33504;52.066;6.096;2023-04-30T10:27:22;14;13;
47741;PMS5003;33504;52.066;6.096;2023-04-30T10:29:49;9;9;
47741;PMS5003;33504;52.066;6.096;2023-04-30T10:32:17;11;10;
47741;PMS5003;33504;52.066;6.096;2023-04-30T10:34:48;12;11;
47741;PMS5003;33504;52.066;6.096;2023-04-30T10:37:20;8;8;
47741;PMS5003;33504;52.066;6.096;2023-04-30T10:39:56;8;7;
47741;PMS5003;33504;52.066;6.096;2023-04-30T10:42:24;9;9;
47741;PMS5003;33504;52.066;6.096;2023-04-30T10:44:51;10;9;
47741;PMS5003;33504;52.066;6.096;2023-04-30T10:47:18;8;7;
47741;PMS5003;33504;52.066;6.096;2023-04-30T10:49:45;8;8;
47741;PMS5003;33504;52.066;6.096;2023-04-30T10:52:15;11;10;
47741;PMS5003;33504;52.066;6.096;2023-04-30T10:54:54;11;9;
47741;PMS5003;33504;52.066;6.096;2023-04-30T10:57:21;11;10;
47741;PMS5003;33504;52.066;6.096;2023-04-30T10:59:51;11;10;
47741;PMS5003;33504;52.066;6.096;2023-04-30T11:02:44;8;8;
47741;PMS5003;33504;52.066;6.096;2023-04-30T11:05:13;10;10;
47741;PMS5003;33504;52.066;6.096;2023-04-30T11:07:49;10;9;
47741;PMS5003;33504;52.066;6.096;2023-04-30T11:10:20;12;11;
47741;PMS5003;33504;52.066;6.096;2023-04-30T11:12:48;10;10;
47741;PMS5003;33504;52.066;6.096;2023-04-30T11:15:16;9;9;
47741;PMS5003;33504;52.066;6.096;2023-04-30T11:17:45;10;9;
47741;PMS5003;33504;52.066;6.096;2023-04-30T11:20:17;7;7;
47741;PMS5003;33504;52.066;6.096;2023-04-30T11:23:06;9;9;
47741;PMS5003;33504;52.066;6.096;2023-04-30T11:25:38;9;8;
47741;PMS5003;33504;52.066;6.096;2023-04-30T11:28:07;14;14;
47741;PMS5003;33504;52.066;6.096;2023-04-30T11:30:39;13;13;
47741;PMS5003;33504;52.066;6.096;2023-04-30T11:33:15;9;9;
47741;PMS5003;33504;52.066;6.096;2023-04-30T11:35:43;6;6;
47741;PMS5003;33504;52.066;6.096;2023-04-30T11:38:10;7;7;
47741;PMS5003;33504;52.066;6.096;2023-04-30T11:40:38;7;7;
47741;PMS5003;33504;52.066;6.096;2023-04-30T11:43:06;6;5;
47741;PMS5003;33504;52.066;6.096;2023-04-30T11:45:33;9;7;
47741;PMS5003;33504;52.066;6.096;2023-04-30T11:48:01;7;7;
47741;PMS5003;33504;52.066;6.096;2023-04-30T11:50:32;8;8;
47741;PMS5003;33504;52.066;6.096;2023-04-30T11:52:59;7;7;
47741;PMS5003;33504;52.066;6.096;2023-04-30T11:55:26;7;6;
47741;PMS5003;33504;52.066;6.096;2023-04-30T11:57:55;6;6;
47741;PMS5003;33504;52.066;6.096;2023-04-30T12:00:24;6;6;
47741;PMS5003;33504;52.066;6.096;2023-04-30T12:02:53;7;7;
47741;PMS5003;33504;52.066;6.096;2023-04-30T12:05:21;7;6;
47741;PMS5003;33504;52.066;6.096;2023-04-30T12:07:49;6;6;
47741;PMS5003;33504;52.066;6.096;2023-04-30T12:10:18;8;7;
47741;PMS5003;33504;52.066;6.096;2023-04-30T12:12:46;8;8;
47741;PMS5003;33504;52.066;6.096;2023-04-30T12:15:15;5;5;
47741;PMS5003;33504;52.066;6.096;2023-04-30T12:17:43;6;5;
47741;PMS5003;33504;52.066;6.096;2023-04-30T12:20:12;8;5;
47741;PMS5003;33504;52.066;6.096;2023-04-30T12:22:40;5;5;
47741;PMS5003;33504;52.066;6.096;2023-04-30T12:25:10;5;4;
47741;PMS5003;33504;52.066;6.096;2023-04-30T12:27:39;7;6;
47741;PMS5003;33504;52.066;6.096;2023-04-30T12:30:07;8;7;
47741;PMS5003;33504;52.066;6.096;2023-04-30T12:32:37;6;6;
47741;PMS5003;33504;52.066;6.096;2023-04-30T12:35:05;6;6;
47741;PMS5003;33504;52.066;6.096;2023-04-30T12:37:32;5;5;
47741;PMS5003;33504;52.066;6.096;2023-04-30T12:39:59;6;6;
47741;PMS5003;33504;52.066;6.096;2023-04-30T12:42:30;5;5;
47741;PMS5003;33504;52.066;6.096;2023-04-30T12:44:57;4;4;
47741;PMS5003;33504;52.066;6.096;2023-04-30T12:47:25;5;5;
47741;PMS5003;33504;52.066;6.096;2023-04-30T12:49:52;6;6;
47741;PMS5003;33504;52.066;6.096;2023-04-30T12:52:22;5;5;
47741;PMS5003;33504;52.066;6.096;2023-04-30T12:54:49;8;6;
47741;PMS5003;33504;52.066;6.096;2023-04-30T12:57:17;5;4;
47741;PMS5003;33504;52.066;6.096;2023-04-30T12:59:55;4;4;
47741;PMS5003;33504;52.066;6.096;2023-04-30T13:02:24;6;5;
47741;PMS5003;33504;52.066;6.096;2023-04-30T13:04:53;4;4;
47741;PMS5003;33504;52.066;6.096;2023-04-30T13:07:20;6;6;
47741;PMS5003;33504;52.066;6.096;2023-04-30T13:09:47;5;5;
47741;PMS5003;33504;52.066;6.096;2023-04-30T13:12:15;4;4;
47741;PMS5003;33504;52.066;6.096;2023-04-30T13:14:42;5;5;
47741;PMS5003;33504;52.066;6.096;2023-04-30T13:17:09;5;5;
47741;PMS5003;33504;52.066;6.096;2023-04-30T13:19:37;3;3;
47741;PMS5003;33504;52.066;6.096;2023-04-30T13:22:04;4;3;
47741;PMS5003;33504;52.066;6.096;2023-04-30T13:24:31;3;3;
47741;PMS5003;33504;52.066;6.096;2023-04-30T13:26:58;5;5;
47741;PMS5003;33504;52.066;6.096;2023-04-30T13:29:26;5;5;
47741;PMS5003;33504;52.066;6.096;2023-04-30T13:31:53;3;3;
47741;PMS5003;33504;52.066;6.096;2023-04-30T13:34:20;6;5;
47741;PMS5003;33504;52.066;6.096;2023-04-30T13:36:48;7;6;
47741;PMS5003;33504;52.066;6.096;2023-04-30T13:39:15;4;4;
47741;PMS5003;33504;52.066;6.096;2023-04-30T13:41:42;4;4;
47741;PMS5003;33504;52.066;6.096;2023-04-30T13:44:10;4;4;
47741;PMS5003;33504;52.066;6.096;2023-04-30T13:46:37;4;4;
47741;PMS5003;33504;52.066;6.096;2023-04-30T13:49:04;6;6;
47741;PMS5003;33504;52.066;6.096;2023-04-30T13:51:32;7;7;
47741;PMS5003;33504;52.066;6.096;2023-04-30T13:53:59;8;8;
47741;PMS5003;33504;52.066;6.096;2023-04-30T13:56:26;5;5;
47741;PMS5003;33504;52.066;6.096;2023-04-30T13:58:54;3;3;
47741;PMS5003;33504;52.066;6.096;2023-04-30T14:01:21;5;5;
47741;PMS5003;33504;52.066;6.096;2023-04-30T14:03:48;4;4;
47741;PMS5003;33504;52.066;6.096;2023-04-30T14:06:16;4;4;
47741;PMS5003;33504;52.066;6.096;2023-04-30T14:08:43;5;4;
47741;PMS5003;33504;52.066;6.096;2023-04-30T14:11:10;3;3;
47741;PMS5003;33504;52.066;6.096;2023-04-30T14:13:38;3;3;
47741;PMS5003;33504;52.066;6.096;2023-04-30T14:16:05;4;4;
47741;PMS5003;33504;52.066;6.096;2023-04-30T14:18:32;2;2;
47741;PMS5003;33504;52.066;6.096;2023-04-30T14:21:00;2;2;
47741;PMS5003;33504;52.066;6.096;2023-04-30T14:23:27;3;3;
47741;PMS5003;33504;52.066;6.096;2023-04-30T14:25:54;1;1;
47741;PMS5003;33504;52.066;6.096;2023-04-30T14:28:22;2;2;
47741;PMS5003;33504;52.066;6.096;2023-04-30T14:30:49;2;2;
47741;PMS5003;33504;52.066;6.096;2023-04-30T14:33:17;2;2;
47741;PMS5003;33504;52.066;6.096;2023-04-30T14:35:44;2;2;
47741;PMS5003;33504;52.066;6.096;2023-04-30T14:38:11;2;2;
47741;PMS5003;33504;52.066;6.096;2023-04-30T14:40:39;2;2;
47741;PMS5003;33504;52.066;6.096;2023-04-30T14:43:06;1;1;
47741;PMS5003;33504;52.066;6.096;2023-04-30T14:45:33;3;2;
47741;PMS5003;33504;52.066;6.096;2023-04-30T14:48:01;3;2;
47741;PMS5003;33504;52.066;6.096;2023-04-30T14:50:28;2;2;
47741;PMS5003;33504;52.066;6.096;2023-04-30T14:52:55;2;2;
47741;PMS5003;33504;52.066;6.096;2023-04-30T14:55:23;2;2;
47741;PMS5003;33504;52.066;6.096;2023-04-30T14:57:50;2;2;
47741;PMS5003;33504;52.066;6.096;2023-04-30T15:00:18;2;2;
47741;PMS5003;33504;52.066;6.096;2023-04-30T15:02:45;0;0;
47741;PMS5003;33504;52.066;6.096;2023-04-30T15:05:12;2;2;
47741;PMS5003;33504;52.066;6.096;2023-04-30T15:07:40;4;4;
47741;PMS5003;33504;52.066;6.096;2023-04-30T15:10:08;2;2;
47741;PMS5003;33504;52.066;6.096;2023-04-30T15:12:35;3;2;
47741;PMS5003;33504;52.066;6.096;2023-04-30T15:15:03;1;1;
47741;PMS5003;33504;52.066;6.096;2023-04-30T15:17:31;1;1;
47741;PMS5003;33504;52.066;6.096;2023-04-30T15:19:58;2;2;
47741;PMS5003;33504;52.066;6.096;2023-04-30T15:22:26;2;2;
47741;PMS5003;33504;52.066;6.096;2023-04-30T15:24:53;1;1;
47741;PMS5003;33504;52.066;6.096;2023-04-30T15:27:20;1;1;
47741;PMS5003;33504;52.066;6.096;2023-04-30T15:29:48;3;2;
47741;PMS5003;33504;52.066;6.096;2023-04-30T15:32:14;1;1;
47741;PMS5003;33504;52.066;6.096;2023-04-30T15:34:42;3;3;
47741;PMS5003;33504;52.066;6.096;2023-04-30T15:37:09;4;4;
47741;PMS5003;33504;52.066;6.096;2023-04-30T15:39:36;3;3;
47741;PMS5003;33504;52.066;6.096;2023-04-30T15:42:04;5;5;
47741;PMS5003;33504;52.066;6.096;2023-04-30T15:44:31;3;3;
47741;PMS5003;33504;52.066;6.096;2023-04-30T15:46:59;5;5;
47741;PMS5003;33504;52.066;6.096;2023-04-30T15:49:27;4;4;
47741;PMS5003;33504;52.066;6.096;2023-04-30T15:51:54;3;3;
47741;PMS5003;33504;52.066;6.096;2023-04-30T15:54:22;6;5;
47741;PMS5003;33504;52.066;6.096;2023-04-30T15:56:48;4;4;
47741;PMS5003;33504;52.066;6.096;2023-04-30T15:59:16;4;4;
47741;PMS5003;33504;52.066;6.096;2023-04-30T16:01:43;5;5;
47741;PMS5003;33504;52.066;6.096;2023-04-30T16:04:10;7;7;
47741;PMS5003;33504;52.066;6.096;2023-04-30T16:06:38;21;21;
47741;PMS5003;33504;52.066;6.096;2023-04-30T16:09:05;4;3;
47741;PMS5003;33504;52.066;6.096;2023-04-30T16:11:33;3;3;
47741;PMS5003;33504;52.066;6.096;2023-04-30T16:14:00;3;3;
47741;PMS5003;33504;52.066;6.096;2023-04-30T16:16:28;3;3;
47741;PMS5003;33504;52.066;6.096;2023-04-30T16:18:55;39;39;
47741;PMS5003;33504;52.066;6.096;2023-04-30T16:21:22;8;8;
47741;PMS5003;33504;52.066;6.096;2023-04-30T16:23:50;5;5;
47741;PMS5003;33504;52.066;6.096;2023-04-30T16:26:17;2;2;
47741;PMS5003;33504;52.066;6.096;2023-04-30T16:28:45;3;3;
47741;PMS5003;33504;52.066;6.096;2023-04-30T16:31:12;2;2;
47741;PMS5003;33504;52.066;6.096;2023-04-30T16:33:40;3;3;